Time;durP1;ratioP1;P1;durP2;ratioP2;P2;SDS_P1;SDS_P2;PMS_P1;PMS_P2;Temp;Humidity;BMP_temperature;BMP_pressure;BME280_temperature;BME280_humidity;BME280_pressure;Samples;Min_cycle;Max_cycle;Signal;HPM_P1;HPM_P2
2021/03/24 06:19:38;;;;;;;101.93;60.17;;;7.20;99.90;;;;;;4812750;29;20314;-86
2021/03/24 06:22:17;;;;;;;97.07;59.00;;;7.50;99.90;;;;;;4849473;29;20382;-85
2021/03/24 06:24:59;;;;;;;95.38;57.83;;;7.60;99.90;;;;;;4879313;29;20222;-84
2021/03/24 06:27:40;;;;;;;100.47;62.40;;;7.70;99.90;;;;;;4941191;28;20254;-86
2021/03/24 06:30:41;;;;;;;99.50;58.55;;;7.80;99.90;;;;;;4951369;29;20234;-86
2021/03/24 06:33:48;;;;;;;96.13;59.28;;;8.00;99.90;;;;;;4944325;28;20235;-85
2021/03/24 06:36:48;;;;;;;102.15;61.40;;;8.10;99.90;;;;;;4960148;28;20205;-85
2021/03/24 06:39:41;;;;;;;94.85;60.03;;;8.20;99.90;;;;;;4935812;29;20209;-84
2021/03/24 06:42:36;;;;;;;99.95;61.90;;;8.30;99.90;;;;;;4951731;29;20274;-86
2021/03/24 06:45:52;;;;;;;108.50;61.22;;;8.30;99.90;;;;;;4942810;29;20217;-87
2021/03/24 06:48:40;;;;;;;103.10;60.47;;;8.30;99.90;;;;;;4883597;29;20216;-84
2021/03/24 06:51:46;;;;;;;102.88;60.85;;;8.20;99.90;;;;;;4886426;29;20264;-84
2021/03/24 06:54:51;;;;;;;97.38;61.33;;;8.30;99.90;;;;;;4939200;29;20579;-85
2021/03/24 06:57:38;;;;;;;103.47;60.70;;;8.30;99.90;;;;;;4946734;29;20241;-85
2021/03/24 07:00:32;;;;;;;95.75;55.35;;;8.50;99.90;;;;;;4944771;29;20253;-83
2021/03/24 07:03:36;;;;;;;101.22;61.63;;;8.60;99.90;;;;;;4943076;29;20262;-84
2021/03/24 07:06:52;;;;;;;92.70;54.20;;;8.70;99.90;;;;;;4945960;29;20254;-85
2021/03/24 07:09:32;;;;;;;94.32;56.35;;;8.80;99.90;;;;;;4918218;29;20220;-86
2021/03/24 07:12:09;;;;;;;105.78;61.38;;;8.80;99.90;;;;;;4926416;29;20315;-85
2021/03/24 07:15:18;;;;;;;81.38;56.30;;;8.80;99.90;;;;;;4943771;28;20265;-84
2021/03/24 07:18:26;;;;;;;99.38;59.03;;;9.00;99.90;;;;;;4963455;28;20269;-85
2021/03/24 07:21:23;;;;;;;105.93;60.85;;;9.00;99.90;;;;;;4960776;28;20188;-84
2021/03/24 07:24:26;;;;;;;94.60;59.05;;;8.90;99.90;;;;;;4961397;28;20218;-84
2021/03/24 07:27:17;;;;;;;110.32;63.10;;;9.00;99.90;;;;;;4963066;28;20254;-82
2021/03/24 07:30:03;;;;;;;101.45;60.40;;;8.80;99.90;;;;;;4961269;28;20204;-83
2021/03/24 07:32:49;;;;;;;94.32;57.10;;;8.90;99.90;;;;;;4960336;28;20214;-83
2021/03/24 07:35:37;;;;;;;91.47;57.38;;;9.00;99.90;;;;;;4962853;28;20201;-83
2021/03/24 07:38:33;;;;;;;97.43;60.65;;;9.10;99.90;;;;;;4957195;28;20274;-82
2021/03/24 07:41:33;;;;;;;102.00;64.63;;;8.90;99.90;;;;;;4960266;28;20279;-83
2021/03/24 07:44:32;;;;;;;101.35;63.58;;;9.30;99.90;;;;;;4944990;28;20303;-82
2021/03/24 07:47:32;;;;;;;90.32;56.30;;;9.40;99.90;;;;;;4951509;28;20210;-82
2021/03/24 07:50:04;;;;;;;95.10;60.95;;;9.70;99.90;;;;;;4955947;28;20219;-83
2021/03/24 07:52:51;;;;;;;104.65;64.50;;;9.70;99.90;;;;;;4963267;28;20297;-85
2021/03/24 07:55:23;;;;;;;95.50;62.83;;;9.80;99.90;;;;;;4951852;29;20211;-83
2021/03/24 07:58:08;;;;;;;115.53;65.30;;;10.00;99.90;;;;;;4948052;29;20306;-86
2021/03/24 08:00:43;;;;;;;95.40;59.05;;;10.00;99.90;;;;;;4943579;29;20707;-84
2021/03/24 08:03:16;;;;;;;82.57;57.33;;;10.10;99.90;;;;;;4942579;29;20237;-87
2021/03/24 08:06:03;;;;;;;103.63;63.72;;;10.50;99.90;;;;;;4951984;29;20646;-83
2021/03/24 08:08:43;;;;;;;98.05;63.58;;;10.80;99.90;;;;;;4953354;29;20211;-83
2021/03/24 08:11:18;;;;;;;81.25;50.55;;;11.10;99.90;;;;;;4956552;29;20524;-84
2021/03/24 08:14:09;;;;;;;86.63;57.58;;;11.60;99.90;;;;;;4958630;28;20291;-89
2021/03/24 08:16:55;;;;;;;92.32;64.95;;;12.10;99.90;;;;;;4949067;29;20218;-86
2021/03/24 08:19:52;;;;;;;75.60;57.40;;;12.30;99.90;;;;;;4946038;29;20200;-86
2021/03/24 08:22:48;;;;;;;90.20;58.92;;;12.60;99.90;;;;;;4914454;28;20249;-86
2021/03/24 08:25:44;;;;;;;92.88;62.92;;;12.70;99.90;;;;;;4952455;29;20217;-82
2021/03/24 08:28:21;;;;;;;88.95;61.40;;;12.30;99.90;;;;;;4954180;29;20519;-85
2021/03/24 08:31:14;;;;;;;84.15;58.15;;;12.50;99.90;;;;;;4948718;29;20233;-84
2021/03/24 08:33:53;;;;;;;88.47;61.95;;;13.00;99.90;;;;;;4945467;28;20218;-84
2021/03/24 08:36:33;;;;;;;83.35;58.30;;;13.30;99.90;;;;;;4958892;28;20250;-85
2021/03/24 08:39:30;;;;;;;74.22;55.03;;;13.70;99.90;;;;;;4956622;28;20232;-85
2021/03/24 08:42:26;;;;;;;79.35;56.63;;;13.90;99.90;;;;;;4954173;28;20238;-83
2021/03/24 08:44:55;;;;;;;91.13;61.10;;;13.70;99.90;;;;;;4951716;28;20273;-84
2021/03/24 08:47:25;;;;;;;73.43;53.25;;;13.90;99.90;;;;;;4936388;29;20687;-86
2021/03/24 08:49:56;;;;;;;86.13;58.28;;;14.10;99.90;;;;;;4945562;29;20227;-84
2021/03/24 08:52:36;;;;;;;93.72;61.30;;;13.90;99.90;;;;;;4951670;28;20306;-84
2021/03/24 08:55:16;;;;;;;84.60;61.13;;;13.80;99.90;;;;;;4946484;29;20210;-83
2021/03/24 08:58:02;;;;;;;81.65;59.08;;;13.80;99.90;;;;;;4945591;29;20227;-85
2021/03/24 09:00:40;;;;;;;86.85;61.92;;;13.80;99.90;;;;;;4942984;29;20203;-86
2021/03/24 09:03:39;;;;;;;77.10;57.75;;;13.80;99.90;;;;;;4945416;29;20266;-83
2021/03/24 09:06:19;;;;;;;83.32;57.83;;;13.80;99.90;;;;;;4948202;29;20210;-87
2021/03/24 09:08:54;;;;;;;86.40;56.20;;;13.50;99.90;;;;;;4950286;29;20203;-84
2021/03/24 09:11:41;;;;;;;79.38;54.58;;;13.80;99.90;;;;;;4946011;29;20241;-85
2021/03/24 09:14:18;;;;;;;85.47;59.20;;;14.20;99.90;;;;;;4944702;29;20204;-84
2021/03/24 09:17:23;;;;;;;80.78;57.90;;;14.60;99.60;;;;;;4947792;29;20207;-86
2021/03/24 09:20:21;;;;;;;78.53;57.53;;;14.30;99.10;;;;;;4943312;29;20239;-84
2021/03/24 09:23:21;;;;;;;71.70;52.40;;;14.30;99.20;;;;;;4956906;28;20234;-84
2021/03/24 09:25:51;;;;;;;82.55;58.47;;;14.80;99.10;;;;;;4943105;29;20210;-83
2021/03/24 09:28:42;;;;;;;86.38;55.67;;;15.40;98.20;;;;;;4948930;29;20291;-84
2021/03/24 09:31:44;;;;;;;78.97;56.50;;;15.90;96.50;;;;;;4939421;29;20230;-85
2021/03/24 09:34:28;;;;;;;72.07;53.97;;;16.00;95.60;;;;;;4949571;29;20268;-85
2021/03/24 09:37:00;;;;;;;79.03;53.97;;;16.30;95.30;;;;;;4952191;29;20216;-82
2021/03/24 09:39:32;;;;;;;82.53;56.33;;;16.40;95.10;;;;;;4952370;29;20289;-84
2021/03/24 09:42:04;;;;;;;76.03;53.40;;;16.80;94.50;;;;;;4949577;29;20536;-82
2021/03/24 09:44:36;;;;;;;79.10;57.73;;;17.40;92.90;;;;;;4964483;29;20462;-84
2021/03/24 09:47:19;;;;;;;71.93;54.40;;;17.50;92.10;;;;;;4954701;29;20545;-86
2021/03/24 09:49:52;;;;;;;72.43;53.93;;;17.50;92.30;;;;;;4955632;29;20482;-84
2021/03/24 09:52:33;;;;;;;72.33;54.37;;;17.50;92.60;;;;;;4950658;29;20953;-88
2021/03/24 09:55:19;;;;;;;67.73;52.70;;;18.30;91.80;;;;;;4942129;29;20428;-85
2021/03/24 09:58:09;;;;;;;74.67;56.37;;;18.50;90.30;;;;;;4960743;29;20474;-85
2021/03/24 10:00:41;;;;;;;72.93;55.40;;;18.50;90.90;;;;;;4945802;29;20439;-88
2021/03/24 10:03:16;;;;;;;74.50;56.30;;;18.20;90.70;;;;;;4945388;29;20520;-86
2021/03/24 10:05:50;;;;;;;71.87;56.30;;;18.20;90.40;;;;;;4954688;29;20511;-84
2021/03/24 10:08:23;;;;;;;69.18;57.05;;;17.90;91.00;;;;;;4949577;29;20532;-84
2021/03/24 10:11:00;;;;;;;68.80;51.53;;;18.00;89.50;;;;;;4944063;29;20231;-84
2021/03/24 10:13:30;;;;;;;76.27;53.17;;;17.50;90.10;;;;;;4942128;29;20489;-86
2021/03/24 10:16:03;;;;;;;69.90;57.77;;;17.40;90.60;;;;;;4949444;29;20445;-86
2021/03/24 10:18:33;;;;;;;73.95;54.78;;;16.80;90.70;;;;;;4954095;29;20552;-86
2021/03/24 10:21:06;;;;;;;81.22;54.63;;;16.30;91.40;;;;;;4943830;29;20209;-86
2021/03/24 10:23:38;;;;;;;79.78;54.25;;;16.20;91.90;;;;;;4952722;28;20291;-86
2021/03/24 10:26:14;;;;;;;72.70;53.97;;;16.30;92.20;;;;;;4951662;28;20215;-85
2021/03/24 10:28:48;;;;;;;68.30;51.53;;;17.00;91.30;;;;;;4952439;29;20450;-84
2021/03/24 10:31:20;;;;;;;71.73;55.93;;;17.80;90.80;;;;;;4946235;28;20500;-86
2021/03/24 10:33:50;;;;;;;72.10;54.77;;;18.20;88.80;;;;;;4946279;29;20458;-84
2021/03/24 10:36:26;;;;;;;77.47;55.47;;;17.00;89.60;;;;;;4944091;29;20485;-86
2021/03/24 10:39:04;;;;;;;73.87;54.20;;;17.20;90.30;;;;;;4952257;28;20491;-83
2021/03/24 10:41:45;;;;;;;78.00;56.40;;;17.50;90.30;;;;;;4954615;28;20430;-84
2021/03/24 10:44:21;;;;;;;81.78;57.78;;;17.00;90.30;;;;;;4955433;28;20438;-84
2021/03/24 10:47:08;;;;;;;84.07;60.15;;;15.90;91.20;;;;;;4945933;28;20216;-85
2021/03/24 10:49:43;;;;;;;81.72;57.72;;;15.70;92.30;;;;;;4948698;29;20212;-83
2021/03/24 10:52:18;;;;;;;77.78;57.60;;;16.20;92.30;;;;;;4945832;29;20270;-84
2021/03/24 10:54:54;;;;;;;80.15;57.80;;;15.70;92.40;;;;;;4942178;29;20210;-85
2021/03/24 10:57:36;;;;;;;84.85;59.40;;;15.80;93.00;;;;;;4947669;29;20226;-85
2021/03/24 11:00:12;;;;;;;81.82;58.15;;;15.70;93.20;;;;;;4951410;29;20240;-84
2021/03/24 11:02:49;;;;;;;78.47;55.70;;;15.80;93.20;;;;;;4946381;29;20289;-84
2021/03/24 11:05:22;;;;;;;76.70;52.60;;;16.00;93.00;;;;;;4949079;29;20271;-84
2021/03/24 11:07:53;;;;;;;80.07;56.28;;;16.30;92.80;;;;;;4947216;29;20205;-88
2021/03/24 11:10:41;;;;;;;73.45;52.95;;;16.20;92.70;;;;;;4962092;29;20201;-87
2021/03/24 11:13:18;;;;;;;75.35;54.08;;;16.40;92.70;;;;;;4951934;29;20249;-86
2021/03/24 11:16:03;;;;;;;76.95;56.10;;;16.70;92.30;;;;;;4955828;28;20206;-85
2021/03/24 11:18:35;;;;;;;75.55;52.58;;;16.30;91.90;;;;;;4951664;29;20228;-85
2021/03/24 11:21:10;;;;;;;66.38;50.67;;;15.80;92.70;;;;;;4954918;29;20219;-85
2021/03/24 11:23:40;;;;;;;72.60;50.25;;;15.70;92.70;;;;;;4964200;28;20222;-85
2021/03/24 11:26:47;;;;;;;63.50;47.83;;;15.90;92.80;;;;;;4956396;29;20318;-85
2021/03/24 11:29:22;;;;;;;61.55;46.15;;;16.10;92.30;;;;;;4951172;29;20204;-86
2021/03/24 11:32:02;;;;;;;67.70;46.10;;;16.10;91.70;;;;;;4952507;29;20234;-85
2021/03/24 11:34:43;;;;;;;63.33;44.85;;;16.00;91.10;;;;;;4952748;29;20300;-85
2021/03/24 11:37:34;;;;;;;60.10;46.92;;;15.90;91.00;;;;;;4950075;29;20207;-86
2021/03/24 11:40:07;;;;;;;57.67;44.83;;;15.40;91.40;;;;;;4950483;28;20550;-86
2021/03/24 11:42:37;;;;;;;62.85;45.75;;;15.60;92.10;;;;;;4948662;29;20220;-86
2021/03/24 11:45:11;;;;;;;64.13;47.28;;;15.60;91.80;;;;;;4950838;29;20212;-85
2021/03/24 11:47:59;;;;;;;57.60;42.17;;;15.80;91.60;;;;;;4951053;29;20276;-85
2021/03/24 11:50:29;;;;;;;63.92;45.15;;;15.80;91.30;;;;;;4946309;29;20208;-84
2021/03/24 11:53:02;;;;;;;61.15;43.35;;;16.10;91.80;;;;;;4950516;29;20290;-85
2021/03/24 11:55:55;;;;;;;50.53;40.75;;;15.90;90.70;;;;;;4948655;29;20283;-87
2021/03/24 11:58:57;;;;;;;58.85;43.25;;;16.10;91.30;;;;;;4950310;29;20243;-87
2021/03/24 12:01:45;;;;;;;57.17;41.80;;;15.90;90.90;;;;;;4949477;29;20239;-86
2021/03/24 12:04:44;;;;;;;57.70;42.90;;;15.70;90.90;;;;;;4948214;29;20267;-85
2021/03/24 12:07:24;;;;;;;57.60;42.95;;;15.30;91.00;;;;;;4956806;29;20243;-85
2021/03/24 12:10:03;;;;;;;62.08;44.83;;;15.40;91.70;;;;;;4943650;29;20230;-85
2021/03/24 12:12:30;;;;;;;55.45;45.05;;;15.60;91.80;;;;;;4950383;29;21279;-86
2021/03/24 12:15:06;;;;;;;55.72;42.97;;;15.50;91.40;;;;;;4951920;28;20203;-86
2021/03/24 12:17:36;;;;;;;57.45;42.20;;;15.60;91.40;;;;;;4945664;29;20218;-85
2021/03/24 12:20:09;;;;;;;58.80;41.97;;;15.60;91.30;;;;;;4946786;29;20681;-85
2021/03/24 12:22:38;;;;;;;58.33;42.85;;;15.60;90.90;;;;;;4946414;29;20296;-85
2021/03/24 12:25:14;;;;;;;57.53;43.22;;;15.40;90.90;;;;;;4947422;28;20295;-85
2021/03/24 12:27:44;;;;;;;61.58;44.63;;;15.20;91.40;;;;;;4946347;29;20443;-85
2021/03/24 12:30:29;;;;;;;59.30;42.20;;;15.20;91.80;;;;;;4945052;29;20486;-85
2021/03/24 12:33:06;;;;;;;60.00;46.35;;;15.20;92.20;;;;;;4953492;28;20457;-86
2021/03/24 12:35:34;;;;;;;53.03;42.10;;;15.40;92.00;;;;;;4952530;29;20202;-86
2021/03/24 12:38:04;;;;;;;58.50;41.95;;;15.30;91.60;;;;;;4945742;28;20305;-87
2021/03/24 12:40:31;;;;;;;58.15;43.78;;;15.50;92.00;;;;;;4955982;28;20235;-86
2021/03/24 12:43:09;;;;;;;55.55;42.72;;;15.60;91.60;;;;;;4941666;29;20860;-86
2021/03/24 12:45:38;;;;;;;57.97;43.70;;;15.60;91.50;;;;;;4947259;29;20205;-85
2021/03/24 12:48:12;;;;;;;56.17;44.47;;;15.60;91.70;;;;;;4947541;29;20219;-87
2021/03/24 12:50:48;;;;;;;59.58;42.63;;;15.50;91.70;;;;;;4946246;29;20291;-87
2021/03/24 12:53:26;;;;;;;59.72;44.13;;;15.50;92.10;;;;;;4945394;29;20223;-85
2021/03/24 12:56:07;;;;;;;54.70;40.92;;;15.50;91.90;;;;;;4946089;29;20263;-85
2021/03/24 12:58:43;;;;;;;55.85;39.88;;;15.40;91.60;;;;;;4947412;29;20220;-87
2021/03/24 13:01:25;;;;;;;64.35;42.53;;;15.30;92.10;;;;;;4945231;29;20302;-87
2021/03/24 13:04:40;;;;;;;48.40;38.22;;;15.50;91.80;;;;;;4938490;29;20267;-89
2021/03/24 13:07:32;;;;;;;58.92;38.78;;;15.60;92.40;;;;;;4942801;29;20203;-86
2021/03/24 13:10:30;;;;;;;48.05;37.33;;;15.90;91.30;;;;;;4948634;29;20212;-87
2021/03/24 13:13:06;;;;;;;48.78;38.17;;;15.70;91.00;;;;;;4936343;29;20267;-87
2021/03/24 13:15:40;;;;;;;53.05;36.53;;;15.90;90.90;;;;;;4941256;29;20232;-86
2021/03/24 13:18:18;;;;;;;54.42;39.35;;;16.00;90.80;;;;;;4947973;29;20685;-87
2021/03/24 13:21:29;;;;;;;59.55;40.15;;;15.90;90.60;;;;;;4942303;29;20204;-86
2021/03/24 13:24:52;;;;;;;51.22;34.30;;;15.80;90.90;;;;;;4962078;28;20190;-84
2021/03/24 13:34:40;;;;;;;49.20;35.25;;;15.60;89.50;;;;;;4859691;29;20210;-86
2021/03/24 13:37:20;;;;;;;47.30;36.42;;;15.50;89.90;;;;;;4887727;29;20223;-85
2021/03/24 13:40:05;;;;;;;46.50;32.72;;;15.50;90.20;;;;;;4953259;29;20604;-86
2021/03/24 13:42:37;;;;;;;51.95;34.55;;;15.60;90.10;;;;;;4939293;29;20311;-87
2021/03/24 13:45:08;;;;;;;46.40;33.33;;;15.70;90.00;;;;;;4941676;29;20292;-85
2021/03/24 13:47:40;;;;;;;48.63;35.40;;;15.70;90.10;;;;;;4945200;29;20680;-85
2021/03/24 13:50:19;;;;;;;45.20;34.90;;;15.70;90.00;;;;;;4942595;29;20550;-87
2021/03/24 13:52:51;;;;;;;47.53;35.05;;;15.50;90.10;;;;;;4945392;29;20628;-86
2021/03/24 13:55:51;;;;;;;50.10;36.00;;;15.70;90.10;;;;;;4946437;28;20226;-86
2021/03/24 13:58:45;;;;;;;49.33;36.95;;;15.90;90.10;;;;;;4945546;29;20216;-86
2021/03/24 14:01:18;;;;;;;51.22;38.42;;;15.80;90.30;;;;;;4953897;29;20209;-86
2021/03/24 14:03:53;;;;;;;52.00;37.88;;;15.70;90.20;;;;;;4944998;29;20784;-87
2021/03/24 14:06:28;;;;;;;57.70;38.40;;;15.60;90.60;;;;;;4941659;29;20254;-86
2021/03/24 14:09:06;;;;;;;51.92;38.95;;;15.60;90.80;;;;;;4954702;29;20318;-86
2021/03/24 14:11:51;;;;;;;55.80;39.00;;;15.60;91.10;;;;;;4957313;29;20237;-84
2021/03/24 14:14:31;;;;;;;49.63;37.38;;;15.60;91.20;;;;;;4956200;29;20215;-84
2021/03/24 14:16:59;;;;;;;55.00;39.17;;;15.70;91.20;;;;;;4955184;28;20226;-85
2021/03/24 14:19:34;;;;;;;52.17;36.97;;;15.80;90.60;;;;;;4953864;29;20284;-87
2021/03/24 14:22:18;;;;;;;54.35;38.42;;;15.70;90.60;;;;;;4955074;28;20261;-84
2021/03/24 14:25:04;;;;;;;52.95;37.67;;;15.60;91.00;;;;;;4948466;29;20230;-84
2021/03/24 14:27:34;;;;;;;55.83;39.22;;;15.40;91.30;;;;;;4936980;29;20228;-87
2021/03/24 14:30:10;;;;;;;49.45;36.60;;;15.40;91.40;;;;;;4946839;29;20219;-86
2021/03/24 14:32:51;;;;;;;50.35;34.90;;;15.40;91.30;;;;;;4944599;29;20250;-86
2021/03/24 14:35:34;;;;;;;57.28;37.17;;;15.40;90.80;;;;;;4937055;29;20214;-86
2021/03/24 14:38:26;;;;;;;45.60;33.42;;;15.40;91.10;;;;;;4945995;29;20224;-86
2021/03/24 14:41:05;;;;;;;49.65;35.95;;;15.70;91.60;;;;;;4939239;29;20621;-86
2021/03/24 14:43:55;;;;;;;51.22;35.28;;;15.80;90.80;;;;;;4951176;28;20224;-84
2021/03/24 14:46:44;;;;;;;49.88;35.55;;;15.80;90.70;;;;;;4932941;29;20224;-85
2021/03/24 14:49:23;;;;;;;46.78;35.22;;;15.50;90.10;;;;;;4942147;29;20276;-85
2021/03/24 14:52:01;;;;;;;46.95;33.25;;;15.50;90.50;;;;;;4940329;29;20275;-86
2021/03/24 14:54:31;;;;;;;44.83;32.95;;;15.30;90.50;;;;;;4945527;29;20246;-86
2021/03/24 14:57:04;;;;;;;52.10;33.90;;;15.20;90.70;;;;;;4954906;28;20272;-84
2021/03/24 14:59:34;;;;;;;46.55;32.92;;;15.20;91.00;;;;;;4945843;29;20345;-85
2021/03/24 15:02:41;;;;;;;45.47;35.53;;;15.40;90.90;;;;;;4944065;29;20226;-86
2021/03/24 15:05:32;;;;;;;52.42;35.72;;;15.30;90.80;;;;;;4945287;29;20341;-84
2021/03/24 15:08:25;;;;;;;49.85;35.88;;;15.30;90.90;;;;;;4943083;29;20231;-85
2021/03/24 15:11:14;;;;;;;51.80;34.10;;;15.30;91.00;;;;;;4938600;29;20214;-86
2021/03/24 15:14:04;;;;;;;48.55;34.97;;;15.20;91.00;;;;;;4940437;29;20302;-86
2021/03/24 15:16:44;;;;;;;54.33;35.25;;;15.30;91.30;;;;;;4942935;29;20243;-84
2021/03/24 15:19:29;;;;;;;46.60;34.58;;;15.40;91.20;;;;;;4945661;29;20227;-87
2021/03/24 15:22:06;;;;;;;49.50;35.50;;;15.50;91.10;;;;;;4967268;28;20254;-85
2021/03/24 15:24:52;;;;;;;52.78;36.05;;;15.40;90.90;;;;;;4959509;28;20198;-84
2021/03/24 15:27:22;;;;;;;43.55;34.63;;;15.40;91.00;;;;;;4958942;28;20279;-84
2021/03/24 15:29:58;;;;;;;46.53;35.33;;;15.70;91.60;;;;;;4966519;28;20196;-84
2021/03/24 15:32:33;;;;;;;48.78;35.63;;;15.90;90.60;;;;;;4954871;28;20196;-83
2021/03/24 15:35:10;;;;;;;48.58;33.80;;;15.90;90.50;;;;;;4953744;28;20220;-86
2021/03/24 15:38:07;;;;;;;47.63;34.30;;;16.00;90.50;;;;;;4963187;28;20188;-84
2021/03/24 15:40:42;;;;;;;45.20;32.42;;;15.90;90.40;;;;;;4960194;28;20252;-84
2021/03/24 15:43:34;;;;;;;41.85;32.47;;;16.00;90.30;;;;;;4959068;28;20274;-85
2021/03/24 15:46:13;;;;;;;47.78;34.50;;;16.00;90.30;;;;;;4957776;28;20203;-84
2021/03/24 15:48:53;;;;;;;43.30;31.20;;;15.90;90.20;;;;;;4959049;28;20183;-83
2021/03/24 15:51:24;;;;;;;51.28;34.28;;;15.60;90.60;;;;;;4962707;28;20227;-84
2021/03/24 15:53:54;;;;;;;41.92;30.98;;;15.70;91.20;;;;;;4953918;28;20246;-84
2021/03/24 15:56:48;;;;;;;44.20;33.30;;;15.50;91.40;;;;;;4946348;28;20203;-87
2021/03/24 15:59:46;;;;;;;51.80;34.70;;;15.30;91.30;;;;;;4946603;29;20234;-86
2021/03/24 16:02:45;;;;;;;44.97;32.78;;;15.30;91.30;;;;;;4940348;29;20227;-86
2021/03/24 16:05:42;;;;;;;45.42;31.95;;;15.40;91.30;;;;;;4945561;29;20200;-86
2021/03/24 16:08:22;;;;;;;48.03;32.50;;;15.30;90.80;;;;;;4945268;29;20242;-85
2021/03/24 16:11:01;;;;;;;43.90;33.35;;;15.20;90.70;;;;;;4941860;29;20339;-86
2021/03/24 16:13:33;;;;;;;42.30;30.85;;;15.20;90.70;;;;;;4940430;29;20223;-87
2021/03/24 16:16:14;;;;;;;50.92;32.72;;;15.10;90.70;;;;;;4942498;29;20295;-84
2021/03/24 16:19:33;;;;;;;44.03;32.75;;;15.00;90.80;;;;;;4944722;29;20275;-85
2021/03/24 16:22:13;;;;;;;43.78;33.95;;;14.90;91.20;;;;;;4943067;29;20215;-88
2021/03/24 16:24:47;;;;;;;50.70;34.90;;;14.80;91.30;;;;;;4949265;29;20608;-87
2021/03/24 16:27:26;;;;;;;42.55;30.77;;;14.70;91.60;;;;;;4950420;29;20236;-86
2021/03/24 16:30:01;;;;;;;52.05;36.47;;;14.70;91.80;;;;;;4952647;29;20196;-87
2021/03/24 16:33:07;;;;;;;46.13;33.72;;;14.70;92.00;;;;;;4941863;29;20443;-85
2021/03/24 16:36:13;;;;;;;43.33;32.03;;;14.70;91.90;;;;;;4948886;29;20210;-86
2021/03/24 16:39:16;;;;;;;45.42;33.00;;;14.80;92.10;;;;;;4947152;29;20295;-86
2021/03/24 16:42:13;;;;;;;50.85;35.25;;;14.70;92.10;;;;;;4943240;29;20214;-85
2021/03/24 16:45:23;;;;;;;47.65;32.95;;;14.70;92.30;;;;;;4938411;29;20603;-84
2021/03/24 16:48:40;;;;;;;50.20;33.83;;;14.60;92.40;;;;;;4947915;29;20246;-86
2021/03/24 16:51:43;;;;;;;49.13;33.45;;;14.60;92.90;;;;;;4948749;29;20199;-84
2021/03/24 16:54:16;;;;;;;55.40;34.67;;;14.50;92.50;;;;;;4944788;29;20664;-86
2021/03/24 16:57:07;;;;;;;45.88;31.90;;;14.50;92.50;;;;;;4938348;29;20211;-86
2021/03/24 16:59:45;;;;;;;50.10;34.63;;;14.50;92.80;;;;;;4941953;29;20227;-87
2021/03/24 17:02:27;;;;;;;51.50;35.00;;;14.60;92.90;;;;;;4949035;29;20223;-86
2021/03/24 17:05:04;;;;;;;51.95;35.47;;;14.50;92.80;;;;;;4952273;28;20282;-86
2021/03/24 17:07:37;;;;;;;49.28;33.55;;;14.50;92.90;;;;;;4954311;29;20223;-84
2021/03/24 17:10:28;;;;;;;52.55;35.25;;;14.40;93.00;;;;;;4953267;29;20212;-85
2021/03/24 17:13:08;;;;;;;49.55;34.53;;;14.40;92.90;;;;;;4950285;29;20228;-83
2021/03/24 17:15:47;;;;;;;45.20;33.13;;;14.50;93.10;;;;;;4945443;29;20251;-85
2021/03/24 17:18:20;;;;;;;46.25;33.47;;;14.50;93.10;;;;;;4950879;29;20333;-85
2021/03/24 17:21:00;;;;;;;45.58;33.30;;;14.40;93.00;;;;;;4941265;29;20204;-86
2021/03/24 17:23:32;;;;;;;48.83;34.05;;;14.40;93.30;;;;;;4943797;29;20220;-84
2021/03/24 17:26:16;;;;;;;46.47;30.83;;;14.30;93.70;;;;;;4955554;29;20207;-86
2021/03/24 17:28:45;;;;;;;50.42;35.10;;;14.30;93.70;;;;;;4954724;29;20207;-83
2021/03/24 17:31:30;;;;;;;42.03;31.98;;;14.30;93.60;;;;;;4952716;28;20295;-85
2021/03/24 17:34:04;;;;;;;48.50;32.95;;;14.30;94.00;;;;;;4939574;29;20294;-87
2021/03/24 17:37:13;;;;;;;49.35;31.20;;;14.30;94.00;;;;;;4947206;29;20275;-85
2021/03/24 17:40:03;;;;;;;48.45;35.05;;;14.10;93.80;;;;;;4913113;29;20356;-84
2021/03/24 17:42:45;;;;;;;48.17;33.42;;;14.20;94.00;;;;;;4908413;29;20240;-84
2021/03/24 17:45:22;;;;;;;42.45;28.58;;;14.10;94.20;;;;;;4939371;29;20222;-83
2021/03/24 17:48:04;;;;;;;46.10;31.00;;;14.00;95.00;;;;;;4941110;29;20246;-85
2021/03/24 17:50:33;;;;;;;53.70;36.40;;;14.00;94.60;;;;;;4946746;29;20298;-86
2021/03/24 17:53:14;;;;;;;50.10;34.63;;;14.00;94.30;;;;;;4944032;29;20224;-86
2021/03/24 17:55:49;;;;;;;52.75;35.58;;;14.00;94.30;;;;;;4948633;29;20592;-89
2021/03/24 17:58:59;;;;;;;42.67;29.30;;;14.00;95.00;;;;;;4914307;28;20221;-89
2021/03/24 18:01:36;;;;;;;52.90;35.55;;;14.00;95.00;;;;;;4907683;29;20226;-86
2021/03/24 18:04:19;;;;;;;46.22;32.28;;;13.90;94.70;;;;;;4901007;29;20239;-87
2021/03/24 18:06:57;;;;;;;60.75;35.85;;;13.90;94.90;;;;;;4908029;29;20231;-86
2021/03/24 18:09:38;;;;;;;58.72;35.05;;;13.70;95.00;;;;;;4900824;29;20587;-87
2021/03/24 18:12:22;;;;;;;50.92;34.13;;;13.60;95.20;;;;;;4912052;29;20224;-86
2021/03/24 18:14:50;;;;;;;53.35;35.97;;;13.50;95.40;;;;;;4912738;29;20221;-86
2021/03/24 18:17:22;;;;;;;43.70;31.73;;;13.40;95.50;;;;;;4906350;29;20283;-86
2021/03/24 18:20:04;;;;;;;51.30;35.10;;;13.40;95.90;;;;;;4911822;29;20228;-87
2021/03/24 18:22:43;;;;;;;62.97;36.75;;;13.40;95.90;;;;;;4918113;29;20902;-86
2021/03/24 18:25:24;;;;;;;46.90;33.40;;;13.30;96.10;;;;;;4941887;23;20603;-75
2021/03/24 18:28:06;;;;;;;45.25;29.52;;;13.20;96.70;;;;;;4943198;29;20308;-76
2021/03/24 18:30:37;;;;;;;52.92;35.55;;;13.20;97.10;;;;;;4940004;29;20226;-74
2021/03/24 18:33:04;;;;;;;52.47;34.80;;;13.20;96.60;;;;;;4941357;28;20207;-77
2021/03/24 18:35:35;;;;;;;48.78;34.88;;;13.10;96.80;;;;;;4930024;29;20293;-73
2021/03/24 18:38:03;;;;;;;58.45;35.83;;;13.10;96.80;;;;;;4942407;29;20233;-75
2021/03/24 18:40:33;;;;;;;53.00;35.85;;;13.10;97.30;;;;;;4929704;29;20776;-74
2021/03/24 18:43:02;;;;;;;60.83;35.90;;;13.00;97.10;;;;;;4939347;29;20210;-72
2021/03/24 18:45:31;;;;;;;47.92;34.40;;;13.10;97.30;;;;;;4924086;29;20203;-72
2021/03/24 18:48:15;;;;;;;57.47;36.97;;;13.10;97.30;;;;;;4934235;29;20206;-75
2021/03/24 18:50:45;;;;;;;53.63;36.83;;;13.20;97.20;;;;;;4925420;29;20222;-76
2021/03/24 18:53:32;;;;;;;55.70;40.08;;;13.20;97.00;;;;;;4922683;29;20301;-73
2021/03/24 18:56:09;;;;;;;60.80;37.65;;;13.20;97.40;;;;;;4928556;29;20213;-75
2021/03/24 18:58:47;;;;;;;56.88;37.97;;;13.20;97.80;;;;;;4933528;29;20234;-72
2021/03/24 19:01:34;;;;;;;51.75;37.42;;;13.10;97.10;;;;;;4924397;29;20292;-76
2021/03/24 19:04:02;;;;;;;57.30;39.08;;;13.20;97.50;;;;;;4925013;29;20254;-77
2021/03/24 19:06:32;;;;;;;61.08;40.10;;;13.30;97.30;;;;;;4932250;29;20225;-75
2021/03/24 19:09:04;;;;;;;56.47;38.90;;;13.30;97.00;;;;;;4930530;29;20225;-74
2021/03/24 19:11:35;;;;;;;66.45;38.00;;;13.40;96.90;;;;;;4937054;29;20341;-79
2021/03/24 19:14:23;;;;;;;59.17;38.95;;;13.40;96.70;;;;;;4937691;29;20276;-77
2021/03/24 19:16:50;;;;;;;61.85;39.38;;;13.30;96.60;;;;;;4933155;29;20211;-79
2021/03/24 19:19:21;;;;;;;51.83;35.45;;;13.30;96.80;;;;;;4940849;29;20557;-74
2021/03/24 19:21:49;;;;;;;52.95;36.67;;;13.30;96.80;;;;;;4934280;29;20289;-78
2021/03/24 19:24:29;;;;;;;55.85;40.88;;;13.40;96.70;;;;;;4935078;29;20210;-77
2021/03/24 19:27:21;;;;;;;53.85;36.33;;;13.40;96.60;;;;;;4933787;29;20766;-77
2021/03/24 19:29:59;;;;;;;56.85;38.97;;;13.30;96.70;;;;;;4938751;29;20237;-75
2021/03/24 19:32:33;;;;;;;60.17;39.40;;;13.30;96.80;;;;;;4923491;29;20292;-79
2021/03/24 19:35:32;;;;;;;55.97;37.50;;;13.20;96.80;;;;;;4941788;29;20230;-76
2021/03/24 19:38:28;;;;;;;51.00;36.42;;;13.20;96.90;;;;;;4929905;29;20294;-78
2021/03/24 19:40:59;;;;;;;60.97;40.28;;;13.20;96.80;;;;;;4923761;29;20351;-76
2021/03/24 19:43:36;;;;;;;62.65;40.70;;;13.00;97.00;;;;;;4925352;29;20214;-76
2021/03/24 19:46:17;;;;;;;53.40;35.08;;;12.90;97.40;;;;;;4941272;29;20256;-76
2021/03/24 19:48:46;;;;;;;59.72;35.20;;;12.90;97.90;;;;;;4944073;29;20220;-75
2021/03/24 19:51:14;;;;;;;54.17;35.42;;;12.80;98.40;;;;;;4936844;29;20709;-76
2021/03/24 19:53:41;;;;;;;49.92;38.33;;;12.70;98.90;;;;;;4931248;29;20213;-76
2021/03/24 19:56:10;;;;;;;48.45;34.63;;;12.70;98.90;;;;;;4934260;29;20223;-76
2021/03/24 19:58:42;;;;;;;63.67;37.97;;;12.60;99.30;;;;;;4931299;29;20267;-77
2021/03/24 20:01:16;;;;;;;56.17;35.90;;;12.60;99.60;;;;;;4927942;29;20253;-76
2021/03/24 20:03:48;;;;;;;52.05;37.40;;;12.50;99.80;;;;;;4929699;29;20224;-76
2021/03/24 20:06:43;;;;;;;54.63;38.22;;;12.50;99.90;;;;;;4938842;29;20307;-78
2021/03/24 20:09:24;;;;;;;52.55;36.47;;;12.40;99.90;;;;;;4929389;29;20341;-79